M/V Crosby Hustler — WDA3941 — position and weather

sailwx.info

Track history (hours):
 
Tides and Currents Weather Stations Pressure Air Temp Water Temp Dewpoint Dewpoint Depression Visibility Wind Speed Wind Dir Waves Ship Positions

M/V Crosby Hustler

Owner: CROSBY INLAND MARINE LLC, GOLDEN MEADOW, LA. More information available from US FCC via Universal Licensing System and Coast Guard Vessel Documentation Center.

Last reported at 2014-Oct-01 01:32 UTC. Time now 2014-Oct-01 20:26 UTC.
Position N 29°27' W 094°51'.

Length 18 m; draft 9 m.

Type: Tug. MMSI: 366804030.

Date/timePositionNaut miles runAvg speedWind from/ knotsBaromVisibWave heightAir tempDewpointWater temp
2014-Oct-01 01:32N 29°27' W 094°51'6 6.4
2014-Oct-01 00:33N 29°32' W 094°54'6 6.5
2014-Sep-30 23:33N 29°38' W 094°58'7 6.6
2014-Sep-30 22:33N 29°44' W 095°02'5 0.7
2014-Sep-30 15:30N 29°46' W 095°06'2 2.3
2014-Sep-30 14:27N 29°48' W 095°04'1 0.1
2014-Sep-30 00:12N 29°47' W 095°05'3 4.4
2014-Sep-29 23:33N 29°44' W 095°03'5 4.6
2014-Sep-29 22:33N 29°41' W 094°59'5 5.5
2014-Sep-29 21:33N 29°36' W 094°57'6 5.5
2014-Sep-29 20:33N 29°32' W 094°53'5 5.0
2014-Sep-29 19:33N 29°27' W 094°51'9 4.1
2014-Sep-29 17:20N 29°18' W 094°53'4 5.6
2014-Sep-29 16:31N 29°17' W 094°58'6 5.6
2014-Sep-29 15:29N 29°13' W 095°02'  
Track history (hours):
 
Tides and Currents Weather Stations Pressure Air Temp Water Temp Dewpoint Dewpoint Depression Visibility Wind Speed Wind Dir Waves Ship Positions

M/V Crosby Hustler

Owner: CROSBY INLAND MARINE LLC, GOLDEN MEADOW, LA. More information available from US FCC via Universal Licensing System and Coast Guard Vessel Documentation Center.

Last reported at 2014-Oct-01 01:32 UTC. Time now 2014-Oct-01 20:26 UTC.
Position N 29°27' W 094°51'.

Length 18 m; draft 9 m.

Type: Tug. MMSI: 366804030.

Date/timePositionNaut miles runAvg speedWind from/ knotsBaromVisibWave heightAir tempDewpointWater temp
2014-Oct-01 01:32N 29°27' W 094°51'6 6.4
2014-Oct-01 00:33N 29°32' W 094°54'6 6.5
2014-Sep-30 23:33N 29°38' W 094°58'7 6.6
2014-Sep-30 22:33N 29°44' W 095°02'5 0.7
2014-Sep-30 15:30N 29°46' W 095°06'2 2.3
2014-Sep-30 14:27N 29°48' W 095°04'1 0.1
2014-Sep-30 00:12N 29°47' W 095°05'3 4.4
2014-Sep-29 23:33N 29°44' W 095°03'5 4.6
2014-Sep-29 22:33N 29°41' W 094°59'5 5.5
2014-Sep-29 21:33N 29°36' W 094°57'6 5.5
2014-Sep-29 20:33N 29°32' W 094°53'5 5.0
2014-Sep-29 19:33N 29°27' W 094°51'9 4.1
2014-Sep-29 17:20N 29°18' W 094°53'4 5.6
2014-Sep-29 16:31N 29°17' W 094°58'6 5.6
2014-Sep-29 15:29N 29°13' W 095°02'  

Dump ship's entire track history